Time;durP1;ratioP1;P1;durP2;ratioP2;P2;SDS_P1;SDS_P2;PMS_P1;PMS_P2;Temp;Humidity;BMP_temperature;BMP_pressure;BME280_temperature;BME280_humidity;BME280_pressure;Samples;Min_cycle;Max_cycle;Signal;HPM_P1;HPM_P2
2022/03/13 00:02:00;;;;;;;30.45;15.95;;;;;;;-2.45;61.91;101404.22;5027855;28;20756;-20
2022/03/13 00:04:25;;;;;;;32.15;17.02;;;;;;;-2.64;61.91;101403.75;5010675;28;20041;-21
2022/03/13 00:06:51;;;;;;;29.05;16.10;;;;;;;-3.40;63.61;101405.09;4994330;28;20044;-21
2022/03/13 00:09:18;;;;;;;26.90;16.00;;;;;;;-3.51;64.99;101397.94;5028948;28;20029;-21
2022/03/13 00:11:44;;;;;;;34.83;17.33;;;;;;;-3.25;64.66;101406.75;5011026;28;20033;-21
2022/03/13 00:14:10;;;;;;;32.92;18.42;;;;;;;-3.07;63.91;101396.09;5027251;28;20067;-21
2022/03/13 00:16:36;;;;;;;43.13;20.50;;;;;;;-3.33;64.29;101374.25;5010782;28;20033;-22
2022/03/13 00:19:02;;;;;;;38.05;20.45;;;;;;;-3.04;64.29;101380.25;5026891;28;20155;-22
2022/03/13 00:21:28;;;;;;;40.92;18.30;;;;;;;-2.99;63.02;101391.22;5026980;28;20116;-21
2022/03/13 00:23:54;;;;;;;28.98;15.65;;;;;;;-3.13;62.86;101401.69;5010722;28;20437;-21
2022/03/13 00:26:20;;;;;;;28.48;15.38;;;;;;;-2.83;62.36;101398.91;5010658;28;20548;-21
2022/03/13 00:28:45;;;;;;;30.20;15.88;;;;;;;-2.89;62.51;101389.69;4994331;28;20060;-21
2022/03/13 00:31:11;;;;;;;28.60;14.75;;;;;;;-2.78;62.02;101369.88;4994285;28;20048;-22
2022/03/13 00:33:36;;;;;;;32.28;15.10;;;;;;;-3.12;62.65;101380.72;5010544;28;20036;-21
2022/03/13 00:36:03;;;;;;;24.00;12.07;;;;;;;-3.41;63.63;101387.78;5028201;28;20037;-20
2022/03/13 00:38:29;;;;;;;23.75;12.52;;;;;;;-3.27;62.61;101390.38;5010642;28;20028;-21
2022/03/13 00:40:55;;;;;;;25.38;13.13;;;;;;;-3.76;64.72;101383.00;5028116;28;20021;-21
2022/03/13 00:43:21;;;;;;;31.73;16.02;;;;;;;-3.79;64.87;101359.69;4994073;28;20128;-21
2022/03/13 00:45:47;;;;;;;29.75;15.07;;;;;;;-4.26;66.18;101368.63;5026731;28;20490;-21
2022/03/13 00:48:12;;;;;;;30.63;16.08;;;;;;;-3.64;64.83;101387.44;5010434;28;20045;-21
2022/03/13 00:50:38;;;;;;;46.55;25.05;;;;;;;-3.83;64.54;101385.09;4993577;28;20025;-21
2022/03/13 00:53:05;;;;;;;34.35;17.80;;;;;;;-3.28;64.16;101388.69;5009953;28;20498;-21
2022/03/13 00:55:31;;;;;;;28.70;14.75;;;;;;;-3.59;64.82;101391.53;5010215;28;20112;-20
2022/03/13 00:57:56;;;;;;;26.40;14.32;;;;;;;-3.85;65.74;101380.94;5026651;28;20124;-21
2022/03/13 01:00:22;;;;;;;27.60;13.63;;;;;;;-4.10;66.98;101379.81;5028105;28;20475;-21
2022/03/13 01:02:48;;;;;;;27.80;15.65;;;;;;;-3.44;64.52;101374.94;5009906;28;20040;-21
2022/03/13 01:05:21;;;;;;;29.17;14.90;;;;;;;-3.55;64.92;101374.78;5010128;28;20029;-20
2022/03/13 01:07:46;;;;;;;28.13;14.38;;;;;;;-4.00;64.67;101361.84;5010431;28;20481;-21
2022/03/13 01:10:12;;;;;;;27.08;14.65;;;;;;;-3.97;66.25;101364.25;5010520;28;20033;-21
2022/03/13 01:12:37;;;;;;;28.95;15.02;;;;;;;-3.51;64.97;101371.03;4993552;28;20407;-20
2022/03/13 01:15:03;;;;;;;27.02;13.82;;;;;;;-4.12;66.13;101371.25;5009649;28;20059;-21
2022/03/13 01:17:29;;;;;;;28.35;13.77;;;;;;;-3.98;66.13;101366.94;5027542;28;20033;-21
2022/03/13 01:19:55;;;;;;;36.25;19.63;;;;;;;-4.03;67.31;101368.06;5027426;28;20029;-21
2022/03/13 01:22:20;;;;;;;34.50;19.95;;;;;;;-4.26;67.69;101364.25;5009976;28;20025;-21
2022/03/13 01:24:46;;;;;;;32.65;18.15;;;;;;;-3.97;66.76;101372.06;5026506;28;20652;-21
2022/03/13 01:27:13;;;;;;;29.70;16.90;;;;;;;-3.92;67.23;101357.00;5026371;28;20033;-21
2022/03/13 01:29:39;;;;;;;41.67;19.38;;;;;;;-3.86;67.23;101351.44;5027622;28;20482;-21
2022/03/13 01:32:06;;;;;;;78.13;27.05;;;;;;;-3.64;66.63;101361.38;5027581;28;20124;-21
2022/03/13 01:34:32;;;;;;;113.05;37.40;;;;;;;-3.17;64.33;101345.41;5009767;28;20033;-21
2022/03/13 01:36:57;;;;;;;44.08;21.52;;;;;;;-3.08;63.92;101337.00;5027387;28;20041;-20
2022/03/13 01:39:23;;;;;;;32.97;17.05;;;;;;;-2.86;62.86;101332.06;5009767;28;20037;-21
2022/03/13 01:41:48;;;;;;;29.00;16.08;;;;;;;-3.01;63.05;101360.94;4993343;28;20037;-21
2022/03/13 01:44:14;;;;;;;33.42;15.85;;;;;;;-3.24;63.53;101364.06;5027775;28;20413;-21
2022/03/13 01:46:39;;;;;;;34.28;16.38;;;;;;;-2.86;63.19;101358.16;5009474;28;20041;-20
2022/03/13 01:49:07;;;;;;;33.13;15.80;;;;;;;-3.21;62.74;101372.63;5009470;28;20083;-21
2022/03/13 01:51:33;;;;;;;35.70;16.35;;;;;;;-2.87;62.22;101366.09;5026514;28;20457;-21
2022/03/13 01:54:01;;;;;;;29.45;15.15;;;;;;;-2.61;61.26;101361.78;4993468;28;20033;-21
2022/03/13 01:56:27;;;;;;;31.17;15.75;;;;;;;-2.72;61.15;101349.41;4993326;28;20037;-20
2022/03/13 01:58:54;;;;;;;30.05;16.00;;;;;;;-2.98;60.93;101348.53;4992778;28;20064;-21
2022/03/13 02:01:21;;;;;;;31.17;16.00;;;;;;;-2.80;62.26;101372.56;5009052;28;20488;-21
2022/03/13 02:03:46;;;;;;;35.30;14.98;;;;;;;-2.79;61.77;101357.78;5009632;28;20053;-20
2022/03/13 02:06:12;;;;;;;27.58;14.82;;;;;;;-2.91;62.27;101357.63;5026083;28;20462;-21
2022/03/13 02:08:37;;;;;;;29.63;15.57;;;;;;;-3.07;62.32;101359.53;5009684;28;20039;-21
2022/03/13 02:11:04;;;;;;;28.10;14.90;;;;;;;-2.88;61.90;101349.59;5025871;28;20026;-22
2022/03/13 02:13:31;;;;;;;25.58;14.05;;;;;;;-3.24;62.08;101337.97;5009370;28;20059;-20
2022/03/13 02:15:57;;;;;;;29.48;15.10;;;;;;;-2.89;61.11;101358.34;5027007;28;20068;-21
2022/03/13 02:18:22;;;;;;;28.27;14.15;;;;;;;-3.43;62.25;101334.88;5025732;28;20405;-20
2022/03/13 02:20:47;;;;;;;30.50;16.25;;;;;;;-3.27;62.98;101347.78;5025666;28;20025;-20
2022/03/13 02:23:24;;;;;;;29.15;16.77;;;;;;;-3.52;63.53;101348.50;5026832;28;20490;-21
2022/03/13 02:25:57;;;;;;;27.48;14.50;;;;;;;-3.32;62.68;101355.06;5009833;28;20029;-21
2022/03/13 02:28:26;;;;;;;30.92;15.52;;;;;;;-4.24;65.88;101325.91;5029116;28;20025;-21
2022/03/13 02:30:56;;;;;;;28.88;15.55;;;;;;;-3.71;65.19;101343.59;5012913;28;20179;-21
2022/03/13 02:33:22;;;;;;;27.27;14.23;;;;;;;-3.83;65.30;101334.75;5012730;28;20478;-21
2022/03/13 02:35:55;;;;;;;28.58;15.07;;;;;;;-3.34;63.54;101328.25;5012702;28;20040;-21
2022/03/13 02:38:20;;;;;;;31.63;14.35;;;;;;;-3.24;63.61;101345.81;5029157;28;20113;-21
2022/03/13 02:40:46;;;;;;;25.58;13.60;;;;;;;-3.60;64.04;101348.13;5012588;28;20409;-21
2022/03/13 02:43:12;;;;;;;25.75;14.05;;;;;;;-3.27;63.38;101338.19;4995839;28;20414;-21
2022/03/13 02:45:38;;;;;;;28.08;14.23;;;;;;;-3.43;63.47;101347.94;5012700;28;20040;-20
2022/03/13 02:48:07;;;;;;;28.05;14.32;;;;;;;-3.90;64.84;101339.50;5012820;28;20033;-21
2022/03/13 02:50:33;;;;;;;25.73;14.15;;;;;;;-3.12;62.93;101328.53;5030079;28;20091;-21
2022/03/13 02:52:59;;;;;;;25.92;14.95;;;;;;;-3.30;63.52;101333.16;5030051;28;20030;-21
2022/03/13 02:55:25;;;;;;;26.20;14.30;;;;;;;-3.40;63.10;101316.41;5011908;28;20115;-21
2022/03/13 02:57:52;;;;;;;27.27;15.07;;;;;;;-3.40;63.29;101337.28;5012325;28;20041;-21
2022/03/13 03:00:19;;;;;;;26.73;14.57;;;;;;;-3.40;63.32;101347.72;5029697;28;20120;-22
2022/03/13 03:02:44;;;;;;;26.77;13.70;;;;;;;-3.59;63.14;101316.75;5029872;28;20192;-21
2022/03/13 03:05:10;;;;;;;23.55;13.80;;;;;;;-3.59;63.40;101315.94;5011865;28;20576;-21
2022/03/13 03:07:37;;;;;;;23.73;12.95;;;;;;;-3.41;63.03;101338.25;5029983;28;20029;-21
2022/03/13 03:10:04;;;;;;;24.85;13.30;;;;;;;-3.46;63.03;101322.84;5011804;28;20481;-20
2022/03/13 03:12:30;;;;;;;26.52;13.23;;;;;;;-3.28;63.32;101325.25;5030162;28;20144;-22
2022/03/13 03:14:57;;;;;;;25.42;12.30;;;;;;;-3.48;63.23;101329.94;5030033;28;20038;-22
2022/03/13 03:17:22;;;;;;;22.17;11.73;;;;;;;-3.52;61.65;101330.22;5030115;28;20496;-20
2022/03/13 03:19:48;;;;;;;23.27;12.27;;;;;;;-3.55;62.26;101331.28;5029519;28;20064;-21
2022/03/13 03:22:14;;;;;;;23.80;12.20;;;;;;;-3.58;62.91;101335.84;5029524;28;20059;-21
2022/03/13 03:24:40;;;;;;;29.90;13.95;;;;;;;-3.80;63.75;101326.75;5011606;28;20063;-21
2022/03/13 03:27:05;;;;;;;42.58;21.67;;;;;;;-4.18;65.02;101316.91;5011249;28;20045;-21
2022/03/13 03:29:31;;;;;;;36.58;18.40;;;;;;;-3.76;64.45;101332.59;5029520;28;20485;-20
2022/03/13 03:31:57;;;;;;;31.05;15.95;;;;;;;-4.04;65.27;101298.66;5029529;28;20124;-20
2022/03/13 03:34:25;;;;;;;23.98;13.40;;;;;;;-3.40;65.16;101331.25;5011657;28;20745;-20
2022/03/13 03:36:54;;;;;;;25.52;13.45;;;;;;;-3.45;65.19;101318.50;5027944;28;20026;-21
2022/03/13 03:39:20;;;;;;;;;;;;;;;-3.36;64.53;101332.72;5011700;28;20033;-21
2022/03/13 03:41:48;;;;;;;22.80;12.63;;;;;;;-3.22;64.30;101321.41;5029591;28;20727;-21
2022/03/13 03:44:14;;;;;;;25.20;13.77;;;;;;;-3.92;66.10;101324.91;5029214;28;20056;-21
2022/03/13 03:46:41;;;;;;;29.75;15.60;;;;;;;-4.03;67.43;101323.78;5029214;28;20601;-21
2022/03/13 03:49:07;;;;;;;36.27;19.10;;;;;;;-3.97;67.32;101322.56;5028943;28;20091;-20
2022/03/13 03:51:33;;;;;;;28.80;14.50;;;;;;;-3.70;66.00;101330.47;5011363;28;20057;-21
2022/03/13 03:53:59;;;;;;;24.05;14.15;;;;;;;-3.82;66.94;101305.16;5028789;28;20080;-21
2022/03/13 03:56:25;;;;;;;29.55;14.73;;;;;;;-3.72;66.91;101321.91;5011395;28;20029;-21
2022/03/13 03:58:51;;;;;;;24.60;13.73;;;;;;;-3.54;66.74;101309.47;5028964;28;20108;-21
2022/03/13 04:01:16;;;;;;;26.30;14.07;;;;;;;-3.30;65.87;101320.13;5029106;28;20043;-21
2022/03/13 04:03:42;;;;;;;23.30;13.77;;;;;;;-3.65;65.95;101307.53;5011178;28;20668;-22
2022/03/13 04:06:07;;;;;;;25.67;13.68;;;;;;;-3.48;65.85;101305.63;5029159;28;20108;-20
2022/03/13 04:08:33;;;;;;;26.45;14.07;;;;;;;-3.18;64.80;101304.63;5028690;28;20561;-21
2022/03/13 04:11:00;;;;;;;26.60;14.07;;;;;;;-3.19;65.66;101323.81;5028484;28;20091;-21
2022/03/13 04:13:26;;;;;;;21.90;12.40;;;;;;;-3.32;65.71;101324.59;5028599;28;20059;-21
2022/03/13 04:15:52;;;;;;;23.23;13.25;;;;;;;-3.65;65.97;101323.19;5028642;28;20033;-21
2022/03/13 04:18:18;;;;;;;24.73;12.85;;;;;;;-3.74;66.03;101333.34;5029034;28;20040;-21
2022/03/13 04:20:44;;;;;;;20.63;11.75;;;;;;;-3.58;65.40;101297.56;5028325;28;20038;-21
2022/03/13 04:23:09;;;;;;;20.88;11.68;;;;;;;-3.49;65.49;101317.84;5028290;28;20040;-21
2022/03/13 04:25:37;;;;;;;18.90;11.68;;;;;;;-3.60;66.28;101324.66;5028471;28;20029;-21
2022/03/13 04:28:04;;;;;;;20.90;11.13;;;;;;;-3.91;67.10;101295.28;5028384;28;20111;-20
2022/03/13 04:30:29;;;;;;;20.05;10.02;;;;;;;-3.61;66.41;101297.75;5028320;28;20033;-21
2022/03/13 04:32:56;;;;;;;19.23;9.18;;;;;;;-3.40;65.81;101319.03;5010320;28;20044;-21
2022/03/13 04:35:22;;;;;;;16.98;9.00;;;;;;;-3.31;65.57;101315.84;5028176;28;20026;-21
2022/03/13 04:37:47;;;;;;;19.17;9.45;;;;;;;-3.30;64.23;101298.41;5028262;28;20033;-21
2022/03/13 04:40:13;;;;;;;18.05;10.10;;;;;;;-3.61;64.99;101323.00;5026927;28;20029;-21
2022/03/13 04:42:38;;;;;;;18.20;9.57;;;;;;;-3.87;65.60;101328.06;5010379;28;20033;-21
2022/03/13 04:45:05;;;;;;;17.63;9.68;;;;;;;-3.89;66.57;101329.91;5027982;28;20474;-21
2022/03/13 04:47:31;;;;;;;15.82;9.68;;;;;;;-3.59;65.36;101327.19;5028170;28;20798;-21
2022/03/13 04:49:57;;;;;;;18.38;8.82;;;;;;;-3.65;65.60;101317.13;5027347;28;20150;-20
2022/03/13 04:52:23;;;;;;;16.33;9.23;;;;;;;-3.67;65.56;101309.41;5028167;28;20546;-21
2022/03/13 04:54:48;;;;;;;20.02;9.43;;;;;;;-3.82;66.59;101299.94;5009944;28;20021;-21
2022/03/13 04:57:14;;;;;;;16.23;10.38;;;;;;;-3.29;65.80;101318.34;5010240;28;20509;-21
2022/03/13 04:59:39;;;;;;;19.25;9.93;;;;;;;-3.09;65.24;101325.72;5028113;28;20025;-21
2022/03/13 05:02:05;;;;;;;16.52;9.27;;;;;;;-3.16;65.02;101328.84;5026591;28;20041;-21
2022/03/13 05:04:32;;;;;;;17.75;9.70;;;;;;;-3.09;65.11;101324.88;5027966;28;20102;-21
2022/03/13 05:06:58;;;;;;;16.55;9.25;;;;;;;-2.97;64.82;101324.09;5027524;28;20899;-21
2022/03/13 05:09:23;;;;;;;16.73;9.70;;;;;;;-3.09;65.06;101311.84;5028132;28;20497;-21
2022/03/13 05:11:49;;;;;;;16.05;8.90;;;;;;;-2.75;64.05;101313.06;4993675;28;20064;-21
2022/03/13 05:14:15;;;;;;;13.85;8.15;;;;;;;-2.36;63.03;101328.78;5027889;28;20073;-21
2022/03/13 05:16:40;;;;;;;16.92;9.82;;;;;;;-2.55;63.31;101324.81;5026180;28;20032;-20
2022/03/13 05:19:06;;;;;;;16.58;9.57;;;;;;;-3.18;65.07;101320.28;5027422;28;20109;-21
2022/03/13 05:21:33;;;;;;;16.35;10.18;;;;;;;-3.01;65.63;101333.06;5027542;28;20040;-21
2022/03/13 05:23:59;;;;;;;16.98;9.98;;;;;;;-2.76;64.25;101315.78;5027689;28;20041;-21
2022/03/13 05:26:25;;;;;;;22.92;11.75;;;;;;;-2.57;63.83;101341.53;5027617;28;20025;-20
2022/03/13 05:28:50;;;;;;;17.65;10.15;;;;;;;-2.79;63.82;101324.66;5027980;28;20018;-20
2022/03/13 05:31:16;;;;;;;22.33;12.35;;;;;;;-3.32;65.43;101311.56;5027750;28;20040;-21
2022/03/13 05:33:42;;;;;;;25.10;13.68;;;;;;;-3.37;66.78;101321.47;5027365;28;20029;-22
2022/03/13 05:36:07;;;;;;;25.25;14.02;;;;;;;-2.98;65.44;101332.88;5027444;28;20029;-21
2022/03/13 05:38:34;;;;;;;21.30;12.95;;;;;;;-2.80;65.10;101345.63;5027548;28;20026;-21
2022/03/13 05:41:01;;;;;;;22.30;11.40;;;;;;;-2.66;65.42;101353.41;5027291;28;20457;-21
2022/03/13 05:43:31;;;;;;;18.92;11.07;;;;;;;-2.19;63.13;101356.38;5027018;28;20378;-20
2022/03/13 05:45:56;;;;;;;21.65;11.38;;;;;;;-2.24;62.92;101328.78;5009581;28;20036;-20
2022/03/13 05:48:22;;;;;;;20.00;12.02;;;;;;;-2.17;63.44;101337.03;5027169;28;20034;-20
2022/03/13 05:50:48;;;;;;;22.17;12.05;;;;;;;-2.11;63.08;101360.13;5027442;28;20029;-20
2022/03/13 05:53:14;;;;;;;18.75;10.45;;;;;;;-1.91;63.59;101339.63;5009559;28;20036;-21
2022/03/13 05:55:39;;;;;;;22.55;10.35;;;;;;;-1.94;62.70;101345.06;5027330;28;20040;-21
2022/03/13 05:58:05;;;;;;;19.67;9.75;;;;;;;-1.86;62.79;101337.53;5027281;28;20396;-21
2022/03/13 06:00:32;;;;;;;17.10;9.20;;;;;;;-1.53;62.46;101350.03;5027504;28;20034;-21
2022/03/13 06:02:58;;;;;;;20.95;9.70;;;;;;;-1.45;61.69;101352.94;5030803;28;20092;-20
2022/03/13 06:05:24;;;;;;;17.98;10.70;;;;;;;-1.37;62.20;101362.00;5031175;28;20052;-20
2022/03/13 06:07:51;;;;;;;19.58;9.93;;;;;;;-1.07;62.02;101364.22;5013339;28;20025;-21
2022/03/13 06:10:17;;;;;;;18.02;9.75;;;;;;;-1.04;60.27;101371.84;5013066;28;20497;-20
2022/03/13 06:12:43;;;;;;;18.38;9.73;;;;;;;-1.19;60.44;101347.59;5030838;28;20051;-20
2022/03/13 06:15:11;;;;;;;19.60;10.00;;;;;;;-0.92;59.54;101375.34;5030877;28;20030;-21
2022/03/13 06:17:45;;;;;;;17.77;9.73;;;;;;;-1.05;60.83;101367.56;5030498;28;20458;-21
2022/03/13 06:20:13;;;;;;;19.50;10.43;;;;;;;-0.85;60.59;101369.56;5030966;28;20033;-20
2022/03/13 06:22:40;;;;;;;16.90;10.25;;;;;;;-0.87;61.30;101353.13;5012852;28;20025;-21
2022/03/13 06:25:08;;;;;;;40.28;19.98;;;;;;;-0.90;60.59;101374.31;5030463;28;20038;-21
2022/03/13 06:27:34;;;;;;;20.08;11.63;;;;;;;-0.61;59.24;101360.84;5030576;28;20028;-22
2022/03/13 06:30:09;;;;;;;31.15;17.33;;;;;;;-0.66;60.63;101368.19;5030613;28;20033;-22
2022/03/13 06:32:35;;;;;;;19.83;13.55;;;;;;;-0.62;59.10;101353.91;5012764;28;20021;-21
2022/03/13 06:35:00;;;;;;;34.40;21.60;;;;;;;-0.28;58.57;101359.25;5030219;28;20044;-21
2022/03/13 06:37:26;;;;;;;21.00;11.90;;;;;;;-0.18;58.97;101370.72;5030766;28;20029;-21
2022/03/13 06:39:51;;;;;;;18.65;9.73;;;;;;;-0.22;58.60;101370.09;5030468;28;20086;-20
2022/03/13 06:42:17;;;;;;;17.83;9.80;;;;;;;-0.26;58.48;101347.69;5028833;28;20413;-21
2022/03/13 06:44:43;;;;;;;18.50;9.77;;;;;;;-0.04;58.33;101362.63;5011997;28;20485;-21
2022/03/13 06:47:08;;;;;;;18.75;10.70;;;;;;;0.37;57.67;101363.81;5012264;28;20029;-21
2022/03/13 06:49:34;;;;;;;20.55;11.70;;;;;;;0.04;58.28;101369.06;5030274;28;20029;-21
2022/03/13 06:51:59;;;;;;;18.98;10.60;;;;;;;0.15;57.63;101366.44;5029174;28;20033;-21
2022/03/13 06:54:25;;;;;;;18.40;11.38;;;;;;;0.07;59.25;101363.59;5030121;28;20064;-21
2022/03/13 06:56:50;;;;;;;16.48;8.25;;;;;;;-0.15;56.55;101362.59;5029920;28;20037;-21
2022/03/13 06:59:16;;;;;;;15.90;8.23;;;;;;;-0.31;55.00;101338.50;5029798;28;20094;-26
2022/03/13 07:01:41;;;;;;;12.93;6.93;;;;;;;0.05;52.51;101360.25;5030109;28;20040;-21
2022/03/13 07:04:07;;;;;;;13.48;7.25;;;;;;;-0.10;51.25;101354.38;4994729;28;20037;-21
2022/03/13 07:06:33;;;;;;;13.57;7.50;;;;;;;-0.17;51.93;101356.63;5029841;28;20029;-21
2022/03/13 07:08:59;;;;;;;14.85;7.20;;;;;;;-0.03;53.50;101343.28;5028653;28;20029;-21
2022/03/13 07:11:26;;;;;;;15.15;6.85;;;;;;;0.39;52.40;101364.53;5029230;28;20033;-21
2022/03/13 07:13:52;;;;;;;10.73;5.50;;;;;;;-0.13;51.69;101363.31;5029302;28;20050;-22
2022/03/13 07:16:19;;;;;;;14.40;6.88;;;;;;;-0.04;51.74;101346.03;5029688;28;20033;-21
2022/03/13 07:18:44;;;;;;;12.50;6.85;;;;;;;0.38;51.09;101343.66;5029892;28;20026;-20
2022/03/13 07:21:10;;;;;;;13.45;7.50;;;;;;;0.73;51.74;101361.00;5029277;28;20056;-21
2022/03/13 07:23:37;;;;;;;13.35;7.18;;;;;;;0.96;51.22;101346.88;5030564;28;20045;-20
2022/03/13 07:26:02;;;;;;;13.38;6.22;;;;;;;1.04;50.19;101348.84;5029506;28;20048;-21
2022/03/13 07:28:29;;;;;;;12.40;6.72;;;;;;;1.34;50.82;101352.56;5029233;28;20497;-22
2022/03/13 07:30:54;;;;;;;12.63;7.70;;;;;;;1.45;51.00;101343.78;5029086;28;20503;-21
2022/03/13 07:33:20;;;;;;;14.40;7.07;;;;;;;1.24;50.65;101354.28;5029839;28;20025;-20
2022/03/13 07:35:45;;;;;;;11.77;6.78;;;;;;;0.75;50.07;101332.84;5011544;28;20025;-20
2022/03/13 07:38:11;;;;;;;12.35;6.70;;;;;;;1.04;49.75;101354.09;5029054;28;20044;-22
2022/03/13 07:40:37;;;;;;;13.52;7.10;;;;;;;1.08;49.64;101345.00;5011268;28;20029;-21
2022/03/13 07:43:04;;;;;;;19.75;10.32;;;;;;;1.14;52.06;101347.13;5028680;28;20402;-21
2022/03/13 07:45:29;;;;;;;13.43;7.38;;;;;;;1.37;49.31;101344.44;5029368;28;20065;-20
2022/03/13 07:47:57;;;;;;;40.58;22.33;;;;;;;1.54;50.35;101325.44;5011240;28;20056;-21
2022/03/13 07:50:24;;;;;;;18.08;9.43;;;;;;;1.68;49.92;101342.69;5029195;28;20087;-20
2022/03/13 07:52:50;;;;;;;15.27;7.82;;;;;;;1.74;50.17;101326.41;5028682;28;20732;-20
2022/03/13 07:55:16;;;;;;;17.02;8.95;;;;;;;2.04;50.18;101337.06;5028933;28;20034;-21
2022/03/13 07:57:41;;;;;;;13.48;7.30;;;;;;;2.47;47.31;101341.22;5028803;28;20047;-21
2022/03/13 08:00:10;;;;;;;13.02;7.53;;;;;;;2.52;46.31;101328.50;5010847;28;20056;-20
2022/03/13 08:02:36;;;;;;;12.40;6.43;;;;;;;2.12;45.28;101342.47;5028787;28;20118;-20
2022/03/13 08:05:02;;;;;;;14.57;8.30;;;;;;;2.41;47.93;101334.69;5027418;28;20053;-22
2022/03/13 08:07:27;;;;;;;14.27;7.80;;;;;;;2.58;47.23;101341.13;5010858;28;20044;-21
2022/03/13 08:09:53;;;;;;;12.02;6.68;;;;;;;2.90;45.65;101345.31;5027213;28;20512;-21
2022/03/13 08:12:19;;;;;;;11.88;6.03;;;;;;;3.17;44.68;101342.84;5028121;28;20393;-21
2022/03/13 08:14:45;;;;;;;11.70;6.28;;;;;;;2.99;44.36;101276.00;5028678;28;20036;-21
2022/03/13 08:17:11;;;;;;;10.85;5.47;;;;;;;2.91;41.59;101325.91;5028321;28;20029;-21
2022/03/13 08:19:36;;;;;;;9.52;5.80;;;;;;;3.17;43.74;101332.28;5010710;28;20033;-21
2022/03/13 08:22:02;;;;;;;47.13;21.10;;;;;;;3.29;42.39;101337.41;5010413;28;20029;-21
2022/03/13 08:24:28;;;;;;;13.23;7.25;;;;;;;3.43;42.38;101329.06;5009620;28;20040;-21
2022/03/13 08:26:53;;;;;;;26.33;16.20;;;;;;;3.71;40.82;101334.44;5027817;28;20026;-21
2022/03/13 08:29:19;;;;;;;20.73;10.10;;;;;;;3.65;42.15;101340.28;5028468;28;20037;-21
2022/03/13 08:31:44;;;;;;;30.33;13.18;;;;;;;3.60;40.86;101325.72;5028134;28;20406;-20
2022/03/13 08:34:10;;;;;;;19.95;10.30;;;;;;;3.52;41.77;101304.50;5028344;28;20033;-21
2022/03/13 08:36:37;;;;;;;13.82;8.35;;;;;;;3.67;40.53;101333.88;5028028;28;20033;-21
2022/03/13 08:39:04;;;;;;;11.85;6.05;;;;;;;3.92;41.44;101337.69;5027788;28;20094;-20
2022/03/13 08:41:30;;;;;;;16.40;7.95;;;;;;;4.37;41.77;101318.50;5009746;28;20029;-21
2022/03/13 08:43:56;;;;;;;14.55;7.65;;;;;;;4.61;43.75;101328.47;5028109;28;20021;-21
2022/03/13 08:46:21;;;;;;;10.88;5.80;;;;;;;4.45;39.89;101315.09;5028160;28;20103;-21
2022/03/13 08:48:47;;;;;;;12.25;7.20;;;;;;;4.50;39.10;101299.63;5027875;28;20029;-22
2022/03/13 08:51:14;;;;;;;10.30;5.90;;;;;;;4.83;40.79;101311.38;5027702;28;20063;-21
2022/03/13 08:53:40;;;;;;;11.05;6.72;;;;;;;4.58;38.87;101325.31;5027781;28;20033;-20
2022/03/13 08:56:06;;;;;;;20.17;10.52;;;;;;;4.39;38.75;101308.59;5027743;28;20041;-22
2022/03/13 08:58:31;;;;;;;24.20;11.35;;;;;;;4.35;39.31;101301.09;5027924;28;20087;-20
2022/03/13 09:00:57;;;;;;;17.92;8.68;;;;;;;4.43;39.83;101317.03;5027624;28;20026;-20
2022/03/13 09:03:24;;;;;;;21.85;10.13;;;;;;;4.59;39.24;101308.47;5010021;28;20029;-20
2022/03/13 09:05:50;;;;;;;10.23;6.15;;;;;;;4.92;37.98;101306.97;5027974;28;20029;-21
2022/03/13 09:08:16;;;;;;;10.93;6.43;;;;;;;5.00;36.46;101304.41;5027828;28;20025;-22
2022/03/13 09:10:42;;;;;;;13.00;6.13;;;;;;;5.39;38.67;101300.59;5009773;28;20071;-21
2022/03/13 09:13:08;;;;;;;11.32;6.78;;;;;;;5.50;35.95;101305.63;5009571;28;20080;-20
2022/03/13 09:15:33;;;;;;;12.38;7.38;;;;;;;5.78;36.29;101306.31;5027658;28;20126;-20
2022/03/13 09:18:02;;;;;;;10.02;5.80;;;;;;;6.00;36.02;101299.66;5009965;28;20037;-20
2022/03/13 09:20:28;;;;;;;10.48;5.35;;;;;;;5.78;37.00;101300.16;5027195;28;20035;-21
2022/03/13 09:22:55;;;;;;;15.95;6.32;;;;;;;5.85;36.19;101293.28;5027306;28;20025;-22
2022/03/13 09:25:20;;;;;;;9.50;5.60;;;;;;;6.00;35.24;101294.34;5027806;28;20037;-20
2022/03/13 09:27:46;;;;;;;12.57;6.57;;;;;;;5.97;38.21;101292.03;5027463;28;20029;-21
2022/03/13 09:30:12;;;;;;;12.45;6.53;;;;;;;5.98;38.17;101293.69;5027596;28;20025;-20
2022/03/13 09:32:38;;;;;;;10.93;6.32;;;;;;;6.54;36.66;101279.97;5009750;28;20029;-21
2022/03/13 09:35:04;;;;;;;20.95;9.27;;;;;;;6.64;37.24;101301.88;5028751;28;20524;-22
2022/03/13 09:37:30;;;;;;;12.82;6.35;;;;;;;6.60;37.29;101268.72;5031232;28;20037;-22
2022/03/13 09:39:56;;;;;;;22.30;10.05;;;;;;;6.58;37.37;101298.03;5031489;28;20025;-21
2022/03/13 09:42:21;;;;;;;14.65;7.68;;;;;;;6.68;35.30;101297.06;5031240;28;20025;-20
2022/03/13 09:44:47;;;;;;;13.82;6.72;;;;;;;6.77;35.36;101278.34;5031236;28;20469;-20
2022/03/13 09:47:12;;;;;;;11.82;6.95;;;;;;;7.39;34.52;101290.28;5031243;28;20450;-20
2022/03/13 09:49:41;;;;;;;12.85;7.15;;;;;;;7.44;34.54;101290.63;5029940;28;20079;-20
2022/03/13 09:52:06;;;;;;;11.10;7.68;;;;;;;7.33;33.48;101283.00;5031526;28;20060;-21
2022/03/13 09:54:32;;;;;;;12.75;7.10;;;;;;;7.29;32.79;101263.91;5031163;28;20473;-20
2022/03/13 09:57:00;;;;;;;13.57;8.85;;;;;;;7.78;32.31;101276.25;5031170;28;20037;-20
2022/03/13 09:59:26;;;;;;;10.93;7.82;;;;;;;7.21;34.41;101272.75;5031103;28;20021;-21
2022/03/13 10:01:51;;;;;;;11.05;5.97;;;;;;;7.28;34.39;101277.38;5031064;28;20391;-20
2022/03/13 10:04:17;;;;;;;12.30;7.07;;;;;;;7.26;33.01;101256.31;5030994;28;20037;-21
2022/03/13 10:07:01;;;;;;;13.40;7.45;;;;;;;7.98;31.93;101274.03;5030832;28;20072;-21
2022/03/13 10:09:28;;;;;;;11.70;6.85;;;;;;;8.23;34.35;101267.63;5030562;28;20035;-21
2022/03/13 10:12:11;;;;;;;9.88;6.30;;;;;;;8.02;30.78;101270.88;5030947;28;20037;-21
2022/03/13 10:14:59;;;;;;;11.52;6.15;;;;;;;7.64;31.34;101268.03;5030825;28;20103;-21
2022/03/13 10:17:29;;;;;;;10.52;6.55;;;;;;;7.05;31.44;101238.25;5030787;28;20055;-22
2022/03/13 10:20:14;;;;;;;80.53;33.72;;;;;;;7.39;31.79;101255.78;5030605;28;20030;-21
2022/03/13 10:22:41;;;;;;;14.13;8.30;;;;;;;7.65;32.80;101253.72;5030750;28;20029;-22
2022/03/13 10:25:07;;;;;;;12.82;6.78;;;;;;;8.03;31.64;101251.28;5030448;28;20141;-21
2022/03/13 10:27:35;;;;;;;11.63;7.10;;;;;;;7.85;31.57;101242.72;5029215;28;20115;-22
2022/03/13 10:30:08;;;;;;;10.27;6.43;;;;;;;7.63;32.97;101250.41;5012840;28;20387;-21
2022/03/13 10:32:35;;;;;;;11.90;7.10;;;;;;;7.71;32.48;101246.91;5030895;28;20478;-20
2022/03/13 10:35:01;;;;;;;9.75;5.63;;;;;;;7.42;30.62;101226.28;5030350;28;20030;-22
2022/03/13 10:37:42;;;;;;;9.88;6.30;;;;;;;8.27;31.67;101252.16;5030626;28;20457;-21
2022/03/13 10:40:22;;;;;;;10.48;6.35;;;;;;;8.27;30.02;101232.72;5030117;28;20032;-20
2022/03/13 10:42:48;;;;;;;11.13;6.00;;;;;;;8.49;31.24;101225.81;5030486;28;20117;-22
2022/03/13 10:45:51;;;;;;;11.93;6.85;;;;;;;8.53;31.44;101222.63;5030430;28;20048;-20
2022/03/13 10:48:28;;;;;;;9.73;5.60;;;;;;;8.87;30.61;101233.81;5029468;28;20033;-21
2022/03/13 10:50:57;;;;;;;10.75;6.35;;;;;;;9.20;30.18;101221.91;5030157;28;20112;-21
2022/03/13 10:53:23;;;;;;;13.40;6.85;;;;;;;9.17;30.03;101205.47;5030311;28;20469;-20
2022/03/13 10:56:09;;;;;;;9.80;5.32;;;;;;;8.88;29.51;101222.19;5030085;28;20025;-21
2022/03/13 10:58:38;;;;;;;10.13;5.93;;;;;;;9.16;29.83;101220.59;5030182;28;20030;-21
2022/03/13 11:01:16;;;;;;;12.40;6.18;;;;;;;8.29;28.48;101220.91;5029716;28;20497;-21
2022/03/13 11:03:54;;;;;;;10.55;5.70;;;;;;;8.34;30.19;101209.78;5030203;28;20037;-21
2022/03/13 11:06:22;;;;;;;9.68;4.93;;;;;;;8.40;29.83;101215.19;5030439;28;20036;-20
2022/03/13 11:08:51;;;;;;;8.88;4.97;;;;;;;8.20;29.87;101190.09;5029962;28;20061;-21
2022/03/13 11:11:19;;;;;;;8.65;4.60;;;;;;;8.52;29.16;101198.84;5030532;28;20033;-21
2022/03/13 11:13:49;;;;;;;11.50;5.50;;;;;;;8.76;28.42;101193.34;5029969;28;20058;-20
2022/03/13 11:16:21;;;;;;;11.25;5.60;;;;;;;8.81;27.95;101196.31;5030204;28;20029;-21